Time;durP1;ratioP1;P1;durP2;ratioP2;P2;SDS_P1;SDS_P2;PMS_P1;PMS_P2;Temp;Humidity;BMP_temperature;BMP_pressure;BME280_temperature;BME280_humidity;BME280_pressure;Samples;Min_cycle;Max_cycle;Signal;HPM_P1;HPM_P2
2021/06/03 00:02:07;;;;;;;6.62;1.72;;;;;;;15.00;51.79;100753.80;1681985;83;21098;-64
2021/06/03 00:04:33;;;;;;;5.00;2.15;;;;;;;15.03;51.75;100757.50;1700313;83;21116;-65
2021/06/03 00:06:59;;;;;;;5.50;2.05;;;;;;;15.08;51.00;100757.05;1702284;83;21091;-65
2021/06/03 00:09:26;;;;;;;5.97;2.02;;;;;;;15.12;51.20;100753.97;1679030;83;21605;-65
2021/06/03 00:11:53;;;;;;;5.72;1.65;;;;;;;15.16;51.11;100757.17;1701996;83;21090;-64
2021/06/03 00:14:21;;;;;;;4.85;1.77;;;;;;;15.19;50.97;100756.39;1705591;83;21632;-64
2021/06/03 00:16:48;;;;;;;5.28;1.75;;;;;;;15.23;50.12;100751.16;1703246;82;21133;-64
2021/06/03 00:19:15;;;;;;;4.83;1.82;;;;;;;15.27;50.37;100758.33;1702768;83;21438;-64
2021/06/03 00:21:44;;;;;;;4.40;1.80;;;;;;;15.30;50.17;100760.70;1698447;83;21731;-65
2021/06/03 00:24:11;;;;;;;9.48;2.00;;;;;;;15.32;49.61;100757.41;1699932;83;21066;-65
2021/06/03 00:26:38;;;;;;;11.97;2.33;;;;;;;15.34;49.86;100767.38;1702212;83;21023;-65
2021/06/03 00:29:06;;;;;;;7.25;2.27;;;;;;;15.35;49.57;100761.10;1702733;83;21052;-64
2021/06/03 00:31:33;;;;;;;7.15;2.10;;;;;;;15.34;49.57;100774.50;1701145;83;21747;-65
2021/06/03 00:34:00;;;;;;;4.25;1.82;;;;;;;15.34;50.13;100763.39;1702047;83;21086;-65
2021/06/03 00:36:26;;;;;;;5.90;1.70;;;;;;;15.32;49.53;100763.21;1706078;83;21130;-64
2021/06/03 00:38:53;;;;;;;4.58;1.92;;;;;;;15.26;49.26;100762.45;1694311;83;21077;-64
2021/06/03 00:41:21;;;;;;;4.97;1.77;;;;;;;15.21;49.42;100764.20;1701990;83;21568;-65
2021/06/03 00:43:48;;;;;;;4.87;1.67;;;;;;;15.15;49.79;100767.44;1672568;83;21111;-65
2021/06/03 00:46:16;;;;;;;4.72;1.20;;;;;;;15.08;49.84;100761.02;1699424;83;21119;-65
2021/06/03 00:48:42;;;;;;;6.75;2.08;;;;;;;15.04;49.96;100771.08;1696848;83;21103;-65
2021/06/03 00:51:10;;;;;;;4.65;1.50;;;;;;;14.99;50.12;100768.84;1703299;83;21106;-64
2021/06/03 00:53:38;;;;;;;7.95;1.87;;;;;;;14.97;50.67;100767.33;1698539;83;21151;-65
2021/06/03 00:56:05;;;;;;;4.30;1.67;;;;;;;14.93;49.99;100769.43;1696015;83;21113;-66
2021/06/03 00:58:34;;;;;;;4.83;1.75;;;;;;;14.91;50.38;100775.38;1691925;83;21617;-64
2021/06/03 01:01:01;;;;;;;6.42;1.98;;;;;;;14.90;50.21;100776.33;1693259;83;21083;-64
2021/06/03 01:03:27;;;;;;;5.30;2.02;;;;;;;14.89;50.38;100772.00;1679406;83;21058;-66
2021/06/03 01:05:59;;;;;;;5.58;2.02;;;;;;;14.88;50.16;100765.52;1655325;85;21482;-65
2021/06/03 01:08:32;;;;;;;4.70;2.15;;;;;;;14.86;50.50;100772.28;1699899;83;21114;-65
2021/06/03 01:11:25;;;;;;;5.25;2.10;;;;;;;14.83;50.17;100762.81;1662346;85;21068;-65
2021/06/03 01:14:22;;;;;;;5.70;1.72;;;;;;;14.79;50.15;100772.03;1668439;85;21115;-66
2021/06/03 01:16:51;;;;;;;5.08;1.87;;;;;;;14.73;50.46;100767.79;1656745;84;21584;-65
2021/06/03 01:19:29;;;;;;;6.12;2.70;;;;;;;14.66;50.87;100776.78;1709096;83;21965;-65
2021/06/03 01:22:12;;;;;;;5.00;2.05;;;;;;;14.60;50.63;100776.00;1700289;83;21566;-65
2021/06/03 01:24:42;;;;;;;6.72;2.22;;;;;;;14.55;51.01;100772.41;1713076;83;21556;-64
2021/06/03 01:27:19;;;;;;;6.60;2.22;;;;;;;14.50;51.24;100778.61;1714378;83;21635;-64
2021/06/03 01:29:57;;;;;;;5.33;2.10;;;;;;;14.45;51.15;100767.11;1706082;83;21588;-64
2021/06/03 01:32:24;;;;;;;5.42;1.98;;;;;;;14.42;51.06;100774.50;1676858;83;21103;-64
2021/06/03 01:34:53;;;;;;;6.75;2.10;;;;;;;14.37;51.35;100770.10;1703953;83;21090;-64
2021/06/03 01:37:20;;;;;;;5.25;2.12;;;;;;;14.33;51.50;100776.16;1689232;83;21031;-64
2021/06/03 01:39:48;;;;;;;9.68;2.45;;;;;;;14.30;51.80;100771.14;1709752;83;21956;-64
2021/06/03 01:42:17;;;;;;;4.47;1.85;;;;;;;14.27;51.82;100778.88;1655279;85;21031;-63
2021/06/03 01:44:45;;;;;;;5.05;1.87;;;;;;;14.26;51.78;100773.72;1704478;83;21895;-63
2021/06/03 01:47:14;;;;;;;8.75;2.83;;;;;;;14.24;51.96;100784.45;1655311;83;21082;-64
2021/06/03 01:49:42;;;;;;;8.15;2.20;;;;;;;14.21;51.65;100777.27;1700214;83;21065;-65
2021/06/03 01:52:11;;;;;;;5.15;2.20;;;;;;;14.20;51.92;100779.55;1701826;83;21063;-63
2021/06/03 01:54:38;;;;;;;6.60;2.60;;;;;;;14.20;51.82;100774.27;1701771;83;21666;-64
2021/06/03 01:57:07;;;;;;;5.17;1.92;;;;;;;14.17;51.97;100782.00;1697370;83;21515;-65
2021/06/03 01:59:36;;;;;;;7.33;2.35;;;;;;;14.17;52.03;100777.17;1701268;83;21592;-64
2021/06/03 02:02:03;;;;;;;6.00;2.30;;;;;;;14.15;51.82;100784.42;1697307;83;21126;-64
2021/06/03 02:04:30;;;;;;;8.83;2.58;;;;;;;14.15;51.93;100779.95;1683782;83;21118;-64
2021/06/03 02:06:58;;;;;;;7.33;2.30;;;;;;;14.13;51.87;100774.80;1697778;83;21552;-64
2021/06/03 02:09:26;;;;;;;9.28;2.37;;;;;;;14.12;52.06;100778.44;1699114;83;22219;-65
2021/06/03 02:11:56;;;;;;;4.83;1.87;;;;;;;14.12;52.12;100777.58;1706215;83;22072;-64
2021/06/03 02:14:28;;;;;;;6.65;2.50;;;;;;;14.11;52.06;100782.54;1679095;83;21099;-64
2021/06/03 02:17:19;;;;;;;9.23;2.58;;;;;;;14.12;52.05;100789.48;1702424;83;21061;-64
2021/06/03 02:20:10;;;;;;;7.50;2.00;;;;;;;14.11;52.16;100779.89;1702005;83;21058;-65
2021/06/03 02:22:38;;;;;;;4.85;2.05;;;;;;;14.10;52.24;100785.69;1698566;83;21118;-64
2021/06/03 02:25:07;;;;;;;4.58;1.90;;;;;;;14.09;52.48;100777.38;1700748;83;21031;-64
2021/06/03 02:27:34;;;;;;;8.18;2.05;;;;;;;14.09;52.01;100788.46;1682232;83;21121;-64
2021/06/03 02:30:01;;;;;;;6.72;2.25;;;;;;;14.08;52.00;100789.42;1703781;83;21554;-64
2021/06/03 02:32:33;;;;;;;5.30;1.87;;;;;;;14.06;51.80;100792.20;1711905;83;21090;-65
2021/06/03 02:35:00;;;;;;;7.37;2.02;;;;;;;14.08;51.84;100793.39;1706030;83;21143;-64
2021/06/03 02:37:27;;;;;;;6.87;2.05;;;;;;;14.06;51.69;100794.84;1708306;83;21090;-64
2021/06/03 02:40:00;;;;;;;7.50;2.20;;;;;;;14.07;51.73;100793.03;1711789;83;21351;-65
2021/06/03 02:42:28;;;;;;;6.30;1.95;;;;;;;14.07;51.63;100793.03;1706521;82;21067;-65
2021/06/03 02:44:55;;;;;;;8.70;2.35;;;;;;;14.09;51.68;100799.05;1707256;83;21104;-64
2021/06/03 02:47:23;;;;;;;5.12;1.85;;;;;;;14.10;51.96;100799.37;1707004;82;21403;-65
2021/06/03 02:49:50;;;;;;;4.75;1.87;;;;;;;14.10;51.66;100802.02;1667616;83;21098;-65
2021/06/03 02:52:18;;;;;;;5.85;1.92;;;;;;;14.12;51.65;100806.69;1715425;83;21081;-64
2021/06/03 02:54:46;;;;;;;8.20;1.85;;;;;;;14.15;51.85;100802.95;1661700;84;21567;-64
2021/06/03 02:57:13;;;;;;;4.45;1.75;;;;;;;14.15;51.63;100813.53;1704838;83;21669;-64
2021/06/03 02:59:40;;;;;;;4.47;1.87;;;;;;;14.16;51.79;100812.57;1682226;83;21356;-65
2021/06/03 03:02:07;;;;;;;5.12;2.00;;;;;;;14.15;51.90;100811.72;1701187;82;21568;-64
2021/06/03 03:04:33;;;;;;;6.35;2.00;;;;;;;14.15;51.48;100811.72;1699006;83;21059;-64
2021/06/03 03:07:00;;;;;;;6.05;2.25;;;;;;;14.17;51.72;100809.80;1682259;83;21091;-64
2021/06/03 03:09:27;;;;;;;4.10;1.75;;;;;;;14.16;51.72;100804.14;1722936;83;21607;-65
2021/06/03 03:11:55;;;;;;;7.85;2.47;;;;;;;14.16;51.45;100801.48;1711361;83;21136;-66
2021/06/03 03:14:22;;;;;;;10.58;2.60;;;;;;;14.18;51.92;100809.30;1690351;83;21086;-64
2021/06/03 03:16:51;;;;;;;5.05;2.12;;;;;;;14.18;52.15;100814.09;1713032;81;21105;-64
2021/06/03 03:19:18;;;;;;;4.47;2.05;;;;;;;14.20;52.36;100808.17;1714002;82;21121;-64
2021/06/03 03:21:45;;;;;;;6.58;2.60;;;;;;;14.21;51.95;100809.86;1718211;82;21090;-65
2021/06/03 03:24:11;;;;;;;7.62;2.47;;;;;;;14.23;51.90;100807.08;1716976;82;22298;-64
2021/06/03 03:26:39;;;;;;;4.22;1.82;;;;;;;14.22;52.14;100811.55;1731682;82;21073;-64
2021/06/03 03:29:06;;;;;;;7.35;2.40;;;;;;;14.25;52.00;100812.56;1722887;82;21011;-64
2021/06/03 03:31:33;;;;;;;5.92;1.85;;;;;;;14.27;52.15;100815.08;1711360;82;22049;-65
2021/06/03 03:34:03;;;;;;;7.62;2.45;;;;;;;14.30;51.93;100817.46;1687118;82;21038;-66
2021/06/03 03:36:30;;;;;;;7.08;1.92;;;;;;;14.30;51.91;100818.29;1710853;82;21833;-65
2021/06/03 03:38:58;;;;;;;7.45;2.95;;;;;;;14.32;51.94;100819.48;1719759;82;21086;-64
2021/06/03 03:41:25;;;;;;;6.25;2.25;;;;;;;14.35;52.12;100809.12;1700223;82;21081;-65
2021/06/03 03:43:52;;;;;;;5.03;2.22;;;;;;;14.37;52.31;100803.19;1694866;82;21553;-64
2021/06/03 03:46:19;;;;;;;8.48;2.40;;;;;;;14.40;52.24;100809.54;1716903;82;21050;-64
2021/06/03 03:48:46;;;;;;;7.05;2.65;;;;;;;14.41;52.49;100807.26;1711980;82;21090;-66
2021/06/03 03:51:14;;;;;;;5.08;2.12;;;;;;;14.44;52.31;100802.98;1717113;82;21647;-66
2021/06/03 03:53:43;;;;;;;7.47;2.15;;;;;;;14.47;52.51;100802.72;1691252;82;21073;-66
2021/06/03 03:56:12;;;;;;;6.37;2.42;;;;;;;14.49;52.50;100812.67;1712659;82;21118;-64
2021/06/03 03:58:42;;;;;;;4.53;1.72;;;;;;;14.50;52.49;100809.89;1693361;84;21120;-65
2021/06/03 04:01:09;;;;;;;7.83;2.85;;;;;;;14.53;51.65;100808.79;1718246;82;21144;-66
2021/06/03 04:03:38;;;;;;;6.22;2.50;;;;;;;14.56;52.08;100822.23;1712238;82;21081;-66
2021/06/03 04:06:06;;;;;;;5.47;2.20;;;;;;;14.56;52.31;100815.14;1715479;82;21089;-66
2021/06/03 04:08:35;;;;;;;5.20;1.70;;;;;;;14.61;51.84;100824.86;1712183;82;21527;-67
2021/06/03 04:11:02;;;;;;;5.25;2.20;;;;;;;14.62;51.64;100821.22;1712328;81;21097;-65
2021/06/03 04:13:32;;;;;;;6.25;2.33;;;;;;;14.65;51.68;100824.92;1715997;82;22200;-65
2021/06/03 04:16:03;;;;;;;6.97;2.27;;;;;;;14.68;52.04;100825.14;1707424;82;21070;-66
2021/06/03 04:18:30;;;;;;;6.28;2.12;;;;;;;14.72;51.59;100821.73;1714223;82;21535;-66
2021/06/03 04:20:57;;;;;;;5.20;1.80;;;;;;;14.78;51.23;100821.18;1690467;82;22355;-66
2021/06/03 04:23:26;;;;;;;8.25;2.20;;;;;;;14.82;51.43;100822.56;1693441;82;21078;-67
2021/06/03 04:25:53;;;;;;;7.10;2.40;;;;;;;14.85;51.32;100825.77;1708747;82;21101;-67
2021/06/03 04:28:20;;;;;;;4.00;1.70;;;;;;;14.91;51.83;100826.18;1706917;82;21110;-66
2021/06/03 04:30:46;;;;;;;4.00;1.75;;;;;;;14.96;51.31;100832.75;1692168;82;21102;-66
2021/06/03 04:33:16;;;;;;;6.17;1.90;;;;;;;15.01;51.64;100825.68;1687519;82;21541;-66
2021/06/03 04:35:41;;;;;;;6.80;2.50;;;;;;;15.07;51.11;100830.92;1658849;85;21049;-67
2021/06/03 04:38:08;;;;;;;6.15;2.00;;;;;;;15.13;51.28;100824.57;1666578;84;21097;-64
2021/06/03 04:40:34;;;;;;;7.60;2.87;;;;;;;15.22;51.05;100831.66;1704152;83;22242;-65
2021/06/03 04:43:01;;;;;;;4.75;1.80;;;;;;;15.31;50.93;100829.96;1667043;84;21007;-66
2021/06/03 04:45:27;;;;;;;6.90;2.45;;;;;;;15.41;50.46;100831.27;1680202;83;21082;-66
2021/06/03 04:47:53;;;;;;;9.95;2.20;;;;;;;15.51;50.23;100828.59;1663318;84;22037;-67
2021/06/03 04:50:21;;;;;;;10.65;2.00;;;;;;;15.60;49.37;100829.04;1679287;84;21227;-66
2021/06/03 04:52:48;;;;;;;6.42;2.37;;;;;;;15.70;48.76;100830.34;1696249;82;21141;-66
2021/06/03 04:55:20;;;;;;;7.50;2.55;;;;;;;15.81;49.00;100829.38;1678486;84;21062;-67
2021/06/03 04:57:46;;;;;;;6.45;2.20;;;;;;;15.89;48.59;100834.78;1684801;83;21027;-66
2021/06/03 05:00:16;;;;;;;4.25;1.77;;;;;;;15.97;48.96;100837.55;1681617;83;21009;-66
2021/06/03 05:02:44;;;;;;;5.50;2.33;;;;;;;16.05;48.91;100828.83;1696157;83;21057;-66
2021/06/03 05:05:11;;;;;;;5.95;1.82;;;;;;;16.14;48.19;100834.09;1664627;85;21456;-66
2021/06/03 05:07:38;;;;;;;4.40;1.52;;;;;;;16.22;48.63;100832.51;1645165;85;21367;-66
2021/06/03 05:10:08;;;;;;;5.55;2.22;;;;;;;16.29;48.09;100833.58;1642503;85;21012;-67
2021/06/03 05:12:34;;;;;;;5.25;1.62;;;;;;;16.36;48.31;100834.67;1646210;85;21100;-68
2021/06/03 05:15:02;;;;;;;5.47;2.20;;;;;;;16.43;47.93;100830.42;1635059;86;22553;-65
2021/06/03 05:17:28;;;;;;;7.45;1.98;;;;;;;16.51;46.37;100826.52;1637335;85;21004;-65
2021/06/03 05:19:56;;;;;;;5.25;1.75;;;;;;;16.59;45.97;100825.75;1665837;85;21031;-66
2021/06/03 05:22:24;;;;;;;5.97;1.65;;;;;;;16.62;45.57;100834.75;1670291;85;21060;-65
2021/06/03 05:24:50;;;;;;;4.45;1.57;;;;;;;16.67;46.88;100831.65;1672896;84;21035;-66
2021/06/03 05:27:17;;;;;;;5.47;2.00;;;;;;;16.73;46.78;100840.35;1673702;83;22141;-65
2021/06/03 05:29:43;;;;;;;5.95;2.30;;;;;;;16.79;47.58;100838.39;1703927;83;20967;-66
2021/06/03 05:32:10;;;;;;;3.80;1.72;;;;;;;16.86;46.43;100842.17;1702316;83;21075;-63
2021/06/03 05:34:36;;;;;;;4.55;1.90;;;;;;;16.93;46.84;100840.20;1664464;84;21091;-63
2021/06/03 05:37:04;;;;;;;4.97;1.65;;;;;;;16.98;45.17;100849.41;1700326;83;21110;-67
2021/06/03 05:39:31;;;;;;;4.97;1.85;;;;;;;17.04;45.71;100840.80;1698792;83;22436;-65
2021/06/03 05:41:58;;;;;;;6.83;1.98;;;;;;;17.11;44.29;100853.48;1697114;83;21025;-64
2021/06/03 05:44:24;;;;;;;4.83;1.90;;;;;;;17.13;44.76;100848.84;1698434;82;21070;-67
2021/06/03 05:46:51;;;;;;;6.10;1.98;;;;;;;17.16;45.51;100848.55;1704634;83;21055;-66
2021/06/03 05:49:19;;;;;;;7.97;1.98;;;;;;;17.19;45.75;100846.41;1701616;83;21101;-67
2021/06/03 05:51:45;;;;;;;5.42;1.67;;;;;;;17.25;44.52;100838.32;1708672;82;22692;-66
2021/06/03 05:54:12;;;;;;;5.28;1.75;;;;;;;17.29;44.20;100852.14;1701075;83;21412;-66
2021/06/03 05:56:39;;;;;;;5.53;1.82;;;;;;;17.34;45.06;100853.84;1685426;83;21074;-67
2021/06/03 05:59:05;;;;;;;7.17;2.15;;;;;;;17.39;45.08;100848.38;1695537;82;21517;-67
2021/06/03 06:01:32;;;;;;;5.72;2.85;;;;;;;17.45;44.11;100849.59;1704717;82;21078;-65
2021/06/03 06:04:18;;;;;;;6.37;2.45;;;;;;;17.50;42.86;100843.78;1668399;83;21206;-65
2021/06/03 06:06:28;;;;;;;6.70;2.20;;;;;;;17.55;42.28;100842.34;1674104;81;21652;-65
2021/06/03 06:08:57;;;;;;;3.65;1.45;;;;;;;17.59;43.31;100848.18;1710824;81;21110;-67
2021/06/03 06:11:27;;;;;;;4.20;1.57;;;;;;;17.62;43.11;100851.36;1681214;83;21122;-66
2021/06/03 06:13:53;;;;;;;5.60;2.17;;;;;;;17.68;43.41;100857.04;1693655;83;21533;-66
2021/06/03 06:16:21;;;;;;;4.60;1.52;;;;;;;17.73;43.00;100854.23;1698008;83;20959;-67
2021/06/03 06:18:48;;;;;;;6.85;2.22;;;;;;;17.79;42.73;100860.77;1676537;84;21008;-66
2021/06/03 06:21:16;;;;;;;5.30;1.55;;;;;;;17.83;41.64;100847.47;1690615;82;21379;-65
2021/06/03 06:23:44;;;;;;;5.28;1.67;;;;;;;17.87;42.12;100846.20;1692935;82;20987;-65
2021/06/03 06:26:10;;;;;;;4.47;1.82;;;;;;;17.92;42.94;100852.36;1701883;84;20984;-65
2021/06/03 06:28:37;;;;;;;5.28;1.67;;;;;;;17.94;42.23;100846.41;1678233;84;21082;-67
2021/06/03 06:31:06;;;;;;;5.95;2.15;;;;;;;17.97;41.30;100842.92;1674808;84;21079;-66
2021/06/03 06:33:33;;;;;;;6.90;1.98;;;;;;;18.00;41.53;100845.73;1694975;84;21102;-64
2021/06/03 06:36:02;;;;;;;4.10;1.90;;;;;;;18.01;41.69;100850.91;1670532;84;21106;-65
2021/06/03 06:38:30;;;;;;;6.35;2.00;;;;;;;18.03;41.68;100857.41;1674210;84;21137;-65
2021/06/03 06:40:56;;;;;;;4.58;1.77;;;;;;;18.08;42.00;100847.11;1695748;84;21191;-65
2021/06/03 06:43:23;;;;;;;5.83;1.70;;;;;;;18.14;41.70;100858.94;1675385;83;21063;-65
2021/06/03 06:45:50;;;;;;;5.60;2.05;;;;;;;18.21;42.33;100850.66;1675442;84;21120;-66
2021/06/03 06:48:16;;;;;;;6.83;1.92;;;;;;;18.29;41.37;100843.17;1691270;84;21058;-66
2021/06/03 06:50:45;;;;;;;3.42;1.32;;;;;;;18.36;40.06;100845.55;1688039;84;21079;-66
2021/06/03 06:53:12;;;;;;;7.05;2.27;;;;;;;18.41;39.91;100838.38;1695282;84;21070;-65
2021/06/03 06:55:40;;;;;;;3.80;1.57;;;;;;;18.44;39.92;100844.23;1691345;84;21509;-66
2021/06/03 06:58:07;;;;;;;6.12;2.00;;;;;;;18.52;38.97;100848.73;1690004;84;21099;-65
2021/06/03 07:00:38;;;;;;;3.30;1.40;;;;;;;18.56;40.15;100846.09;1665189;84;21079;-65
2021/06/03 07:03:07;;;;;;;5.70;2.42;;;;;;;18.62;40.61;100851.26;1692408;84;21075;-64
2021/06/03 07:05:34;;;;;;;6.33;1.80;;;;;;;18.67;40.66;100857.75;1690472;84;21169;-64
2021/06/03 07:08:00;;;;;;;4.28;1.82;;;;;;;18.73;39.88;100842.95;1690449;84;21074;-64
2021/06/03 07:10:27;;;;;;;5.37;1.98;;;;;;;18.75;39.66;100831.11;1689169;84;21044;-65
2021/06/03 07:12:55;;;;;;;4.30;1.67;;;;;;;18.78;39.47;100835.29;1690150;84;21146;-66
2021/06/03 07:15:22;;;;;;;4.65;1.77;;;;;;;18.81;39.80;100842.11;1688858;84;21325;-65
2021/06/03 07:17:51;;;;;;;3.67;1.27;;;;;;;18.82;39.45;100840.61;1694912;82;21530;-65
2021/06/03 07:20:19;;;;;;;7.72;1.62;;;;;;;18.83;39.51;100836.99;1702082;83;21597;-67
2021/06/03 07:22:49;;;;;;;5.60;1.82;;;;;;;18.89;39.61;100842.15;1697893;83;21203;-65
2021/06/03 07:25:18;;;;;;;5.80;2.05;;;;;;;18.91;39.69;100838.81;1700292;83;21608;-66
2021/06/03 07:27:44;;;;;;;7.33;1.90;;;;;;;18.92;39.84;100837.31;1695455;83;22072;-66
2021/06/03 07:30:13;;;;;;;6.58;2.05;;;;;;;18.96;40.14;100837.81;1660298;84;21094;-65
2021/06/03 07:33:36;;;;;;;5.72;2.08;;;;;;;19.04;38.33;100843.14;1859025;76;22629;-65
2021/06/03 07:36:03;;;;;;;4.50;1.77;;;;;;;19.03;39.26;100833.50;1828909;76;21014;-65
2021/06/03 07:38:30;;;;;;;6.42;2.27;;;;;;;19.07;39.34;100836.15;1828247;77;22739;-64
2021/06/03 07:40:58;;;;;;;6.10;1.80;;;;;;;19.10;39.43;100837.66;1820837;77;21031;-64
2021/06/03 07:43:24;;;;;;;5.15;1.57;;;;;;;19.13;38.79;100845.30;1826477;77;21015;-65
2021/06/03 07:45:51;;;;;;;5.90;1.52;;;;;;;19.15;36.91;100833.13;1802074;78;21014;-65
2021/06/03 07:48:17;;;;;;;4.50;2.00;;;;;;;19.16;37.59;100838.81;1807254;76;20981;-66
2021/06/03 07:50:44;;;;;;;4.17;1.70;;;;;;;19.16;38.17;100855.64;1793861;77;21265;-65
2021/06/03 07:53:10;;;;;;;3.98;1.50;;;;;;;19.21;38.29;100842.63;1796465;78;21041;-65
2021/06/03 07:55:38;;;;;;;6.20;2.02;;;;;;;19.26;37.66;100845.62;1773208;79;21309;-63
2021/06/03 07:58:09;;;;;;;3.95;1.32;;;;;;;19.29;37.10;100841.80;1769394;79;21993;-64
2021/06/03 08:00:36;;;;;;;5.97;2.25;;;;;;;19.32;38.07;100837.47;1760564;79;21084;-65
2021/06/03 08:03:04;;;;;;;4.17;1.67;;;;;;;19.35;37.31;100841.14;1794562;78;21099;-65
2021/06/03 08:05:30;;;;;;;4.00;1.50;;;;;;;19.37;36.53;100839.12;1793572;78;21097;-65
2021/06/03 08:07:57;;;;;;;4.05;1.37;;;;;;;19.37;37.36;100843.13;1786035;78;21071;-64
2021/06/03 08:10:28;;;;;;;6.62;1.72;;;;;;;19.40;37.61;100836.13;1797020;78;21133;-65
2021/06/03 08:12:56;;;;;;;5.15;1.70;;;;;;;19.46;37.32;100839.42;1791811;78;21429;-65
2021/06/03 08:15:24;;;;;;;7.03;2.20;;;;;;;19.52;37.61;100834.41;1790503;78;21526;-63
2021/06/03 08:17:54;;;;;;;4.28;1.30;;;;;;;19.54;37.33;100839.92;1792569;78;21044;-65
2021/06/03 08:20:24;;;;;;;4.65;1.65;;;;;;;19.55;36.14;100837.59;1795869;78;21513;-65
2021/06/03 08:22:50;;;;;;;3.35;1.20;;;;;;;19.55;35.66;100844.75;1799073;78;21014;-65
2021/06/03 08:25:17;;;;;;;4.85;1.80;;;;;;;19.56;36.61;100839.76;1791004;78;21449;-65
2021/06/03 08:27:44;;;;;;;5.17;1.72;;;;;;;19.64;37.85;100849.08;1793445;78;21134;-64
2021/06/03 08:30:13;;;;;;;5.03;1.90;;;;;;;19.72;37.03;100843.72;1792464;78;21015;-65
2021/06/03 08:32:40;;;;;;;6.90;1.77;;;;;;;19.72;36.72;100848.20;1793569;78;21038;-65
2021/06/03 08:35:13;;;;;;;5.15;1.80;;;;;;;19.67;37.71;100847.41;1788070;78;21533;-65
2021/06/03 08:37:36;;;;;;;6.45;1.57;;;;;;;19.67;36.70;100840.73;1791836;78;21572;-65
2021/06/03 08:40:04;;;;;;;9.65;1.60;;;;;;;19.70;36.59;100843.03;1798121;78;21058;-64
2021/06/03 08:42:32;;;;;;;6.33;1.92;;;;;;;19.79;36.59;100843.91;1769849;79;21023;-64
2021/06/03 08:44:58;;;;;;;4.35;1.70;;;;;;;19.83;37.03;100843.36;1776789;78;21080;-66
2021/06/03 08:47:29;;;;;;;4.90;1.98;;;;;;;19.84;36.72;100846.38;1796766;78;21060;-65
2021/06/03 08:49:56;;;;;;;5.15;1.42;;;;;;;19.83;36.27;100854.55;1796417;78;20996;-67
2021/06/03 08:52:22;;;;;;;3.90;1.45;;;;;;;19.83;36.29;100847.36;1771233;79;21459;-66
2021/06/03 08:54:54;;;;;;;4.40;1.82;;;;;;;19.82;36.13;100848.39;1765166;79;21295;-66
2021/06/03 08:57:18;;;;;;;4.65;1.60;;;;;;;19.81;36.10;100854.72;1801597;78;21030;-67
2021/06/03 08:59:45;;;;;;;6.42;1.85;;;;;;;19.79;36.37;100858.08;1782902;78;21685;-66
2021/06/03 09:02:13;;;;;;;4.40;1.30;;;;;;;19.80;36.53;100858.90;1789564;78;21014;-65
2021/06/03 09:04:40;;;;;;;4.35;1.52;;;;;;;19.82;36.72;100860.41;1805346;78;21193;-64
2021/06/03 09:07:37;;;;;;;3.75;1.70;;;;;;;19.88;36.56;100845.52;1792290;78;21516;-66
2021/06/03 09:10:33;;;;;;;7.00;1.65;;;;;;;20.01;36.30;100847.66;1770563;78;21493;-67
2021/06/03 09:13:18;;;;;;;4.53;1.60;;;;;;;20.12;36.36;100853.92;1797148;78;21024;-66
2021/06/03 09:15:51;;;;;;;6.62;1.50;;;;;;;20.26;35.87;100851.04;1796982;78;21115;-67
2021/06/03 09:18:27;;;;;;;5.45;1.47;;;;;;;20.43;34.70;100847.77;1794428;78;21125;-67
2021/06/03 09:20:54;;;;;;;7.95;1.67;;;;;;;20.49;35.03;100843.03;1794462;78;21512;-67
2021/06/03 09:23:28;;;;;;;4.75;1.20;;;;;;;20.51;35.04;100841.53;1798404;78;21338;-67
2021/06/03 09:25:56;;;;;;;8.35;1.45;;;;;;;20.48;34.16;100849.41;1788370;78;21015;-63
2021/06/03 09:28:29;;;;;;;3.77;1.50;;;;;;;20.45;34.51;100848.42;1794928;78;21026;-66
2021/06/03 09:31:06;;;;;;;5.58;1.62;;;;;;;20.51;34.22;100850.87;1793770;78;21091;-65
2021/06/03 09:33:49;;;;;;;4.20;1.17;;;;;;;20.54;33.81;100850.05;1787873;78;21085;-64
2021/06/03 09:36:26;;;;;;;3.77;1.30;;;;;;;20.52;34.45;100854.72;1794000;78;21498;-64
2021/06/03 09:39:14;;;;;;;4.42;1.72;;;;;;;20.50;34.70;100858.08;1793221;78;21041;-66
2021/06/03 09:41:55;;;;;;;6.35;1.60;;;;;;;20.49;35.73;100857.73;1791399;78;21020;-65
2021/06/03 09:44:27;;;;;;;7.00;1.45;;;;;;;20.40;35.25;100852.12;1716825;81;21857;-66
2021/06/03 09:46:58;;;;;;;5.00;1.60;;;;;;;20.32;35.02;100845.48;1736525;80;21447;-66
2021/06/03 09:49:32;;;;;;;7.78;1.32;;;;;;;20.22;34.34;100853.72;1709081;82;21045;-66
2021/06/03 09:52:13;;;;;;;3.45;1.27;;;;;;;20.16;35.04;100852.59;1732963;80;21038;-66
2021/06/03 09:54:41;;;;;;;4.03;1.32;;;;;;;20.12;35.26;100857.11;1707376;80;21057;-65
2021/06/03 09:57:10;;;;;;;4.58;1.65;;;;;;;20.09;35.20;100852.97;1731765;80;21104;-65
2021/06/03 09:59:45;;;;;;;4.20;1.60;;;;;;;20.10;35.84;100860.46;1734607;81;21076;-65
2021/06/03 10:02:18;;;;;;;3.67;1.55;;;;;;;20.13;36.43;100862.28;1738234;80;21050;-65
2021/06/03 10:04:47;;;;;;;3.15;1.30;;;;;;;20.17;35.76;100862.77;1709035;82;21548;-66
2021/06/03 10:07:27;;;;;;;4.42;1.65;;;;;;;20.23;35.47;100868.75;1725329;80;21110;-66
2021/06/03 10:10:07;;;;;;;3.85;1.60;;;;;;;20.29;34.84;100867.21;1706834;82;21197;-65
2021/06/03 10:12:45;;;;;;;5.15;1.32;;;;;;;20.35;34.87;100865.19;1728285;81;21627;-66
2021/06/03 10:15:23;;;;;;;4.22;1.57;;;;;;;20.39;35.16;100862.00;1732405;81;20974;-66
2021/06/03 10:17:54;;;;;;;5.28;1.50;;;;;;;20.43;34.14;100853.63;1743331;80;21007;-65
2021/06/03 10:20:26;;;;;;;6.47;1.57;;;;;;;20.54;34.92;100858.55;1734505;80;20957;-66
2021/06/03 10:22:52;;;;;;;7.53;2.05;;;;;;;20.68;35.20;100858.32;1725544;80;21117;-66
2021/06/03 10:25:29;;;;;;;4.45;1.55;;;;;;;20.81;34.83;100855.89;1734878;80;20959;-66
2021/06/03 10:28:10;;;;;;;3.90;1.50;;;;;;;20.88;34.71;100852.84;1724191;80;20959;-66
2021/06/03 10:30:52;;;;;;;8.30;2.00;;;;;;;20.88;34.91;100866.70;1733748;80;21062;-66
2021/06/03 10:33:25;;;;;;;5.30;1.82;;;;;;;20.83;34.32;100858.39;1712395;82;21433;-66
2021/06/03 10:35:58;;;;;;;3.27;1.32;;;;;;;20.85;34.75;100863.08;1732901;81;21141;-66
2021/06/03 10:38:25;;;;;;;4.65;1.52;;;;;;;20.86;34.11;100856.70;1742189;80;20971;-65
2021/06/03 10:40:59;;;;;;;3.72;1.35;;;;;;;20.93;34.32;100850.47;1712621;82;21039;-64
2021/06/03 10:43:28;;;;;;;5.47;2.08;;;;;;;21.10;33.99;100851.67;1708592;82;21048;-66
2021/06/03 10:45:54;;;;;;;7.67;1.80;;;;;;;21.25;33.94;100852.53;1721482;80;21280;-65
2021/06/03 10:48:20;;;;;;;5.08;1.62;;;;;;;21.29;33.43;100845.79;1738378;80;21064;-65
2021/06/03 10:50:50;;;;;;;5.45;1.67;;;;;;;21.21;34.05;100849.88;1739740;81;21098;-66
2021/06/03 10:53:22;;;;;;;5.90;1.80;;;;;;;21.07;34.30;100859.54;1712482;80;21092;-66
2021/06/03 10:55:52;;;;;;;8.55;1.62;;;;;;;20.93;34.40;100855.81;1729243;80;21510;-66
2021/06/03 10:58:21;;;;;;;4.37;1.62;;;;;;;20.86;34.69;100858.03;1737618;80;21090;-66
2021/06/03 11:01:01;;;;;;;4.37;1.52;;;;;;;20.83;34.28;100862.40;1734876;80;21302;-66
2021/06/03 11:03:40;;;;;;;3.72;1.40;;;;;;;20.86;34.76;100862.05;1719779;82;21642;-66
2021/06/03 11:06:10;;;;;;;4.87;1.57;;;;;;;20.97;34.71;100850.94;1732335;80;21098;-64
2021/06/03 11:08:41;;;;;;;5.67;1.30;;;;;;;21.16;34.27;100844.23;1738774;81;21505;-66
2021/06/03 11:11:14;;;;;;;3.80;1.67;;;;;;;21.32;33.36;100849.45;1706498;82;21082;-65
2021/06/03 11:13:52;;;;;;;4.37;1.42;;;;;;;21.51;32.60;100840.59;1741367;80;21083;-65
2021/06/03 11:16:21;;;;;;;;;;;;;;;21.61;32.62;100851.03;1741401;80;21030;-65
2021/06/03 11:18:56;;;;;;;3.52;1.50;;;;;;;21.68;33.23;100846.08;1720709;81;20296;-66
2021/06/03 11:21:41;;;;;;;4.92;1.77;;;;;;;21.67;33.33;100845.78;1737091;80;21046;-66
2021/06/03 11:24:36;;;;;;;3.80;1.52;;;;;;;21.70;33.80;100854.78;1705484;80;21046;-66
2021/06/03 11:27:15;;;;;;;6.07;1.27;;;;;;;21.71;32.85;100856.42;1727433;80;21074;-66
2021/06/03 11:29:54;;;;;;;12.95;1.90;;;;;;;21.65;33.34;100853.17;1747063;80;21071;-67
2021/06/03 11:32:31;;;;;;;4.03;1.75;;;;;;;21.75;33.41;100840.00;1736298;80;21584;-66
2021/06/03 11:34:59;;;;;;;;;;;;;;;21.88;33.60;100854.39;1733620;80;21530;-66
2021/06/03 11:37:39;;;;;;;3.02;1.25;;;;;;;21.94;33.59;100847.96;1715461;81;20146;-67
2021/06/03 11:40:21;;;;;;;4.62;1.50;;;;;;;21.90;33.03;100851.53;1733657;81;21050;-66